Time;durP1;ratioP1;P1;durP2;ratioP2;P2;SDS_P1;SDS_P2;PMS_P1;PMS_P2;Temp;Humidity;BMP_temperature;BMP_pressure;BME280_temperature;BME280_humidity;BME280_pressure;Samples;Min_cycle;Max_cycle;Signal;HPM_P1;HPM_P2
2022/12/12 00:01:52;;;;;;;27.63;9.93;;;0.50;99.90;;;;;;4990395;28;20169;-76
2022/12/12 00:04:18;;;;;;;15.65;9.52;;;0.50;99.90;;;;;;4984486;28;20023;-76
2022/12/12 00:06:43;;;;;;;27.00;10.13;;;0.50;99.90;;;;;;4989049;28;20497;-76
2022/12/12 00:09:09;;;;;;;11.98;7.65;;;0.50;99.90;;;;;;4985335;28;20027;-76
2022/12/12 00:11:36;;;;;;;18.02;9.43;;;0.50;99.90;;;;;;4990053;28;20061;-77
2022/12/12 00:14:02;;;;;;;27.80;10.57;;;0.40;99.90;;;;;;4985022;28;20085;-76
2022/12/12 00:16:29;;;;;;;16.50;8.00;;;0.50;99.90;;;;;;4988418;28;20038;-77
2022/12/12 00:18:54;;;;;;;16.20;9.07;;;0.40;99.90;;;;;;4985220;28;20018;-76
2022/12/12 00:21:24;;;;;;;26.65;10.15;;;0.40;99.90;;;;;;4990819;28;20088;-76
2022/12/12 00:23:51;;;;;;;19.60;9.13;;;0.40;99.90;;;;;;4984809;28;20101;-76
2022/12/12 00:26:30;;;;;;;23.92;8.57;;;0.50;99.90;;;;;;4990701;28;20049;-76
2022/12/12 00:28:57;;;;;;;15.85;8.27;;;0.50;99.90;;;;;;4972773;28;20030;-76
2022/12/12 00:31:23;;;;;;;17.75;8.85;;;0.50;99.90;;;;;;4972546;28;20034;-76
2022/12/12 00:33:49;;;;;;;25.15;10.57;;;0.50;99.90;;;;;;4982977;28;20073;-76
2022/12/12 00:36:18;;;;;;;21.20;10.15;;;0.50;99.90;;;;;;4991793;28;20117;-76
2022/12/12 00:38:44;;;;;;;16.58;8.20;;;0.50;99.90;;;;;;4981312;28;20027;-76
2022/12/12 00:41:10;;;;;;;23.20;11.27;;;0.50;99.90;;;;;;4991826;28;20035;-76
2022/12/12 00:43:36;;;;;;;22.58;9.65;;;0.50;99.90;;;;;;4978381;28;20058;-76
2022/12/12 00:46:02;;;;;;;19.67;9.82;;;0.50;99.90;;;;;;4992893;28;20030;-76
2022/12/12 00:48:28;;;;;;;18.92;8.27;;;0.40;99.90;;;;;;4981600;28;20102;-76
2022/12/12 00:50:55;;;;;;;23.58;9.77;;;0.40;99.90;;;;;;4991888;28;20457;-76
2022/12/12 00:53:21;;;;;;;25.17;10.15;;;0.40;99.90;;;;;;4982110;28;20122;-76
2022/12/12 00:55:56;;;;;;;20.85;10.05;;;0.30;99.90;;;;;;4992159;28;20513;-76
2022/12/12 00:58:22;;;;;;;36.85;11.23;;;0.30;99.90;;;;;;4977602;28;20047;-76
2022/12/12 01:00:48;;;;;;;21.77;9.10;;;0.30;99.90;;;;;;4989753;28;20036;-76
2022/12/12 01:03:14;;;;;;;24.15;11.90;;;0.30;99.90;;;;;;4982844;28;20109;-77
2022/12/12 01:05:40;;;;;;;22.33;9.65;;;0.30;99.90;;;;;;4990711;28;20186;-76
2022/12/12 01:08:05;;;;;;;16.15;10.27;;;0.30;99.90;;;;;;4999648;28;20122;-76
2022/12/12 01:10:31;;;;;;;20.65;9.27;;;0.30;99.90;;;;;;4989194;28;20041;-76
2022/12/12 01:12:57;;;;;;;24.63;10.38;;;0.20;99.90;;;;;;4984587;28;20518;-76
2022/12/12 01:15:23;;;;;;;23.48;8.43;;;0.30;99.90;;;;;;4988036;28;20066;-76
2022/12/12 01:17:48;;;;;;;16.08;9.10;;;0.20;99.90;;;;;;4986006;28;20085;-76
2022/12/12 01:20:23;;;;;;;21.38;7.85;;;0.10;99.90;;;;;;4986831;28;20031;-76
2022/12/12 01:22:49;;;;;;;13.50;7.75;;;0.10;99.90;;;;;;4984925;28;20054;-76
2022/12/12 01:25:16;;;;;;;21.27;8.23;;;0.00;99.90;;;;;;4987081;28;20117;-76
2022/12/12 01:27:42;;;;;;;13.15;6.85;;;0.00;99.90;;;;;;4986726;28;20026;-76
2022/12/12 01:30:12;;;;;;;21.30;8.05;;;0.00;99.90;;;;;;4985662;28;20168;-76
2022/12/12 01:32:38;;;;;;;22.38;8.45;;;0.00;99.90;;;;;;4986110;28;20034;-76
2022/12/12 01:35:07;;;;;;;18.48;9.90;;;-0.10;99.90;;;;;;4984397;28;20045;-76
2022/12/12 01:37:37;;;;;;;13.15;9.18;;;-0.20;99.90;;;;;;4972537;28;20023;-76
2022/12/12 01:40:10;;;;;;;19.73;8.10;;;-0.30;99.90;;;;;;4979305;28;20035;-76
2022/12/12 01:42:37;;;;;;;24.38;8.10;;;-0.20;99.90;;;;;;4978744;28;20050;-76
2022/12/12 01:45:03;;;;;;;24.20;8.45;;;-0.30;99.90;;;;;;4985297;28;20114;-77
2022/12/12 01:47:28;;;;;;;21.50;10.23;;;-0.30;99.90;;;;;;4988022;28;20026;-76
2022/12/12 01:50:04;;;;;;;18.35;7.15;;;-0.40;99.90;;;;;;4983477;28;20080;-76
2022/12/12 01:52:47;;;;;;;14.55;8.63;;;-0.40;99.90;;;;;;4986956;28;20065;-76
2022/12/12 01:55:22;;;;;;;18.73;7.30;;;-0.50;99.90;;;;;;4985154;28;20076;-76
2022/12/12 01:57:53;;;;;;;16.63;8.05;;;-0.60;99.90;;;;;;4973554;28;20034;-76
2022/12/12 02:00:19;;;;;;;14.07;7.43;;;-0.60;99.90;;;;;;4971827;28;20031;-76
2022/12/12 02:02:46;;;;;;;16.38;8.07;;;-0.70;99.90;;;;;;4971991;28;20038;-76
2022/12/12 02:05:29;;;;;;;16.55;6.85;;;-0.70;99.90;;;;;;4952748;28;20037;-76
2022/12/12 02:07:59;;;;;;;13.20;7.32;;;-0.60;99.90;;;;;;4964502;28;20066;-76
2022/12/12 02:10:25;;;;;;;13.75;7.47;;;-0.70;99.90;;;;;;4966181;28;20031;-76
2022/12/12 02:13:00;;;;;;;16.17;10.50;;;-0.70;99.90;;;;;;4972553;28;20030;-76
2022/12/12 02:15:58;;;;;;;15.90;6.38;;;-0.60;99.90;;;;;;4974983;28;20036;-76
2022/12/12 02:18:23;;;;;;;16.95;9.18;;;-0.70;99.90;;;;;;4959674;28;20047;-76
2022/12/12 02:21:04;;;;;;;11.20;6.07;;;-0.70;99.90;;;;;;4989251;28;20556;-76
2022/12/12 02:23:57;;;;;;;12.85;6.20;;;-0.70;99.90;;;;;;4975187;28;20039;-77
2022/12/12 02:27:00;;;;;;;15.95;7.55;;;-0.60;99.90;;;;;;4987135;28;20038;-77
2022/12/12 02:29:47;;;;;;;14.80;6.75;;;-0.60;99.90;;;;;;4975930;28;20055;-77
2022/12/12 02:32:24;;;;;;;15.30;7.45;;;-0.70;99.90;;;;;;4976563;28;20065;-76
2022/12/12 02:35:00;;;;;;;11.52;6.68;;;-0.70;99.90;;;;;;4981726;28;20114;-76
2022/12/12 02:37:56;;;;;;;15.98;7.38;;;-0.80;99.90;;;;;;4986922;28;20117;-75
2022/12/12 02:40:39;;;;;;;13.30;4.55;;;-0.80;99.90;;;;;;4970554;28;20023;-76
2022/12/12 02:43:39;;;;;;;8.60;4.75;;;-0.80;99.90;;;;;;4980715;28;20641;-76
2022/12/12 02:46:26;;;;;;;13.18;5.38;;;-0.90;99.90;;;;;;4952681;29;20027;-76
2022/12/12 02:49:20;;;;;;;17.90;6.70;;;-1.00;99.90;;;;;;4965718;28;20031;-76
2022/12/12 02:51:49;;;;;;;6.90;4.90;;;-1.00;99.90;;;;;;4986578;28;20039;-76
2022/12/12 02:54:19;;;;;;;8.15;5.65;;;-1.00;99.90;;;;;;4981727;28;20494;-76
2022/12/12 02:57:11;;;;;;;18.50;7.22;;;-1.00;99.90;;;;;;4986535;28;20039;-76
2022/12/12 02:59:43;;;;;;;10.55;6.28;;;-1.00;99.90;;;;;;4982774;28;20038;-76
2022/12/12 03:02:50;;;;;;;12.23;8.15;;;-1.00;99.90;;;;;;4986169;28;20018;-76
2022/12/12 03:09:37;;;;;;;12.90;5.43;;;-1.00;99.90;;;;;;4974040;28;21454;-76
2022/12/12 03:12:25;;;;;;;9.18;5.60;;;-0.90;99.90;;;;;;4908509;29;20119;-76
2022/12/12 03:15:22;;;;;;;15.65;6.75;;;-0.90;99.90;;;;;;4979084;28;20030;-76
2022/12/12 03:18:04;;;;;;;11.07;6.88;;;-0.90;99.90;;;;;;4981981;28;20520;-76
2022/12/12 03:20:49;;;;;;;20.88;6.97;;;-0.80;99.90;;;;;;4990197;28;20085;-76
2022/12/12 03:23:21;;;;;;;11.30;6.57;;;-0.80;99.90;;;;;;4979707;28;20090;-76
2022/12/12 03:26:19;;;;;;;17.35;6.18;;;-0.80;99.90;;;;;;4991529;28;20030;-76
2022/12/12 03:28:54;;;;;;;25.85;7.30;;;-0.70;99.90;;;;;;4978616;28;20521;-76
2022/12/12 03:31:27;;;;;;;14.02;6.45;;;-0.80;99.90;;;;;;4990907;28;20105;-77
2022/12/12 03:34:01;;;;;;;15.73;6.95;;;-0.70;99.90;;;;;;4966012;28;20110;-76
2022/12/12 03:36:50;;;;;;;10.75;6.03;;;-0.80;99.90;;;;;;4972980;28;20030;-76
2022/12/12 03:39:34;;;;;;;15.65;7.03;;;-0.80;99.90;;;;;;4974761;28;20041;-76
2022/12/12 03:42:09;;;;;;;12.15;6.10;;;-0.80;99.90;;;;;;4989498;28;20172;-76
2022/12/12 03:44:45;;;;;;;13.40;7.68;;;-0.80;99.90;;;;;;4984744;28;20270;-76
2022/12/12 03:47:18;;;;;;;15.52;8.02;;;-0.80;99.90;;;;;;4989323;28;20504;-76
2022/12/12 03:49:58;;;;;;;17.58;7.50;;;-0.80;99.90;;;;;;4984318;28;20046;-76
2022/12/12 03:52:36;;;;;;;14.75;10.05;;;-0.90;99.90;;;;;;4990508;28;20034;-76
2022/12/12 03:55:32;;;;;;;15.10;7.35;;;-0.90;99.90;;;;;;4979087;28;20037;-76
2022/12/12 03:58:04;;;;;;;9.00;4.85;;;-0.90;99.90;;;;;;4984679;28;20522;-76
2022/12/12 04:00:32;;;;;;;16.75;9.93;;;-0.90;99.90;;;;;;4989298;28;20034;-76
2022/12/12 04:03:33;;;;;;;18.20;8.65;;;-0.90;99.90;;;;;;4986311;28;20035;-76
2022/12/12 04:06:26;;;;;;;11.68;7.40;;;-0.90;99.90;;;;;;4954810;29;20497;-76
2022/12/12 04:15:13;;;;;;;17.20;8.50;;;-0.90;99.90;;;;;;5019053;28;20489;-69
2022/12/12 04:17:42;;;;;;;;;;;-0.90;99.90;;;;;;5027427;28;20042;-69
2022/12/12 04:23:50;;;;;;;17.63;8.82;;;-0.90;99.90;;;;;;5026948;28;20116;-69
2022/12/12 04:26:41;;;;;;;17.98;9.93;;;-0.80;99.90;;;;;;5026337;28;20416;-69
2022/12/12 04:29:18;;;;;;;20.45;9.80;;;-0.90;99.90;;;;;;5006290;28;20030;-69
2022/12/12 04:32:34;;;;;;;17.98;6.70;;;-0.90;99.90;;;;;;5031148;28;20496;-68
2022/12/12 04:35:16;;;;;;;11.82;7.55;;;-0.90;99.90;;;;;;5013480;28;20034;-68
2022/12/12 04:37:56;;;;;;;8.45;6.45;;;-0.80;99.90;;;;;;5013159;28;20459;-69
2022/12/12 04:40:30;;;;;;;10.82;7.28;;;-0.80;99.90;;;;;;5006458;28;20033;-69
2022/12/12 04:43:27;;;;;;;11.80;6.57;;;-0.80;99.90;;;;;;5011098;28;20021;-69
2022/12/12 04:45:58;;;;;;;18.60;6.53;;;-0.80;99.90;;;;;;5006867;28;20097;-68
2022/12/12 04:48:40;;;;;;;23.08;10.48;;;-0.90;99.90;;;;;;5010997;28;20116;-68
2022/12/12 04:51:09;;;;;;;22.92;8.23;;;-0.80;99.90;;;;;;5002643;28;20029;-68
2022/12/12 04:53:44;;;;;;;15.90;7.25;;;-0.90;99.90;;;;;;5009555;28;20581;-70
2022/12/12 04:56:15;;;;;;;15.27;5.45;;;-0.80;99.90;;;;;;5008869;28;20041;-69
2022/12/12 04:58:41;;;;;;;10.43;7.72;;;-0.90;99.90;;;;;;5009081;28;20116;-70
2022/12/12 05:01:29;;;;;;;12.05;6.90;;;-0.90;99.90;;;;;;5025367;28;20449;-70
2022/12/12 05:04:06;;;;;;;18.58;8.23;;;-0.90;99.90;;;;;;4992118;28;20104;-70
2022/12/12 05:06:46;;;;;;;13.27;6.80;;;-0.90;99.90;;;;;;5011778;28;20033;-68
2022/12/12 05:09:15;;;;;;;20.48;7.20;;;-0.90;99.90;;;;;;5004287;28;20237;-68
2022/12/12 05:11:41;;;;;;;11.77;8.25;;;-0.90;99.90;;;;;;5012446;28;20026;-68
2022/12/12 05:14:08;;;;;;;12.32;8.13;;;-0.90;99.90;;;;;;5004916;28;20076;-69
2022/12/12 05:16:57;;;;;;;26.27;7.60;;;-0.90;99.90;;;;;;4992294;28;20029;-69
2022/12/12 05:19:23;;;;;;;16.48;6.00;;;-0.90;99.90;;;;;;5001847;28;20036;-69
2022/12/12 05:21:49;;;;;;;11.63;6.95;;;-0.90;99.90;;;;;;5030830;28;20030;-69
2022/12/12 05:24:14;;;;;;;12.20;5.82;;;-0.90;99.90;;;;;;5020921;28;20544;-69
2022/12/12 05:26:40;;;;;;;14.18;6.97;;;-0.90;99.90;;;;;;5029531;28;20174;-69
2022/12/12 05:29:06;;;;;;;15.30;7.00;;;-0.90;99.90;;;;;;5021437;28;20025;-69
2022/12/12 05:31:32;;;;;;;10.85;7.50;;;-0.70;99.90;;;;;;5028305;28;20111;-70
2022/12/12 05:33:57;;;;;;;24.52;9.20;;;-0.80;99.90;;;;;;5006175;28;20034;-69
2022/12/12 05:36:23;;;;;;;14.77;6.45;;;-0.80;99.90;;;;;;4978963;28;20030;-69
2022/12/12 05:38:49;;;;;;;21.42;8.05;;;-0.90;99.90;;;;;;5006279;28;20030;-69
2022/12/12 05:41:15;;;;;;;14.15;7.68;;;-0.90;99.90;;;;;;5016214;28;20052;-70
2022/12/12 05:43:48;;;;;;;11.95;8.00;;;-0.90;99.90;;;;;;4990838;28;20026;-71
2022/12/12 05:46:16;;;;;;;23.08;9.70;;;-1.00;99.90;;;;;;5015064;28;20079;-69
2022/12/12 05:48:43;;;;;;;11.15;7.35;;;-0.90;99.90;;;;;;5028804;28;20420;-69
2022/12/12 05:51:08;;;;;;;26.63;10.98;;;-0.90;99.90;;;;;;5002621;28;20021;-70
2022/12/12 05:53:34;;;;;;;33.00;9.18;;;-0.90;99.90;;;;;;5023242;28;20032;-71
2022/12/12 05:56:00;;;;;;;18.83;7.18;;;-0.90;99.90;;;;;;5015716;28;20072;-71
2022/12/12 05:58:32;;;;;;;8.55;6.70;;;-0.90;99.90;;;;;;5004884;28;20034;-71
2022/12/12 06:00:57;;;;;;;14.52;7.72;;;-0.90;99.90;;;;;;5023842;28;20404;-71
2022/12/12 06:03:23;;;;;;;13.25;7.93;;;-0.90;99.90;;;;;;5022455;28;20026;-71
2022/12/12 06:05:49;;;;;;;22.80;8.98;;;-1.00;99.90;;;;;;5024192;28;20075;-71
2022/12/12 06:08:14;;;;;;;10.45;5.30;;;-0.80;99.90;;;;;;5022362;28;20026;-71
2022/12/12 06:10:40;;;;;;;25.13;8.68;;;-0.80;99.90;;;;;;5024128;28;20034;-72
2022/12/12 06:13:06;;;;;;;17.63;8.95;;;-0.80;99.90;;;;;;4998596;28;20022;-72
2022/12/12 06:15:31;;;;;;;18.67;8.23;;;-0.80;99.90;;;;;;5007194;28;20025;-71
2022/12/12 06:17:57;;;;;;;14.18;8.15;;;-0.80;99.90;;;;;;4998635;28;20034;-72
2022/12/12 06:20:23;;;;;;;11.82;7.45;;;-0.90;99.90;;;;;;4962841;28;20034;-71
2022/12/12 06:22:49;;;;;;;15.50;7.93;;;-0.80;99.90;;;;;;5010115;28;20037;-72
2022/12/12 06:25:15;;;;;;;22.95;7.10;;;-0.80;99.90;;;;;;5025296;28;20493;-71
2022/12/12 06:27:40;;;;;;;15.23;6.68;;;-0.90;99.90;;;;;;5019077;28;20126;-71
2022/12/12 06:30:07;;;;;;;16.92;8.00;;;-0.90;99.90;;;;;;5005518;28;20625;-71
2022/12/12 06:32:33;;;;;;;22.08;7.13;;;-0.90;99.90;;;;;;4979626;28;20065;-72
2022/12/12 06:34:58;;;;;;;16.77;6.57;;;-0.80;99.90;;;;;;5010004;28;20151;-70
2022/12/12 06:37:24;;;;;;;13.93;5.00;;;-0.80;99.90;;;;;;4984670;28;20038;-72
2022/12/12 06:39:50;;;;;;;11.68;7.63;;;-0.80;99.90;;;;;;5013370;28;20060;-68
2022/12/12 06:42:15;;;;;;;20.52;8.20;;;-0.90;99.90;;;;;;5001386;28;20061;-70
2022/12/12 06:44:41;;;;;;;15.35;7.55;;;-0.90;99.90;;;;;;5003621;28;20075;-70
2022/12/12 06:47:07;;;;;;;23.92;9.85;;;-0.90;99.90;;;;;;5014747;28;20062;-69
2022/12/12 06:49:33;;;;;;;15.13;7.78;;;-0.90;99.90;;;;;;4997408;28;20029;-69
2022/12/12 06:51:58;;;;;;;12.93;7.25;;;-0.90;99.90;;;;;;5012642;28;20034;-68
2022/12/12 06:54:25;;;;;;;11.95;5.80;;;-0.90;99.90;;;;;;5004475;28;20053;-68
2022/12/12 06:56:51;;;;;;;14.55;6.32;;;-0.90;99.90;;;;;;5013685;28;20033;-70
2022/12/12 06:59:16;;;;;;;21.25;7.50;;;-0.90;99.90;;;;;;5010215;28;20080;-69
2022/12/12 07:01:43;;;;;;;17.15;7.78;;;-0.90;99.90;;;;;;5020224;28;20125;-69
2022/12/12 07:04:10;;;;;;;9.32;5.88;;;-0.80;99.90;;;;;;5009877;28;20171;-69
2022/12/12 07:06:36;;;;;;;10.73;6.82;;;-0.90;99.90;;;;;;5026051;28;20033;-69
2022/12/12 07:09:02;;;;;;;11.07;7.13;;;-0.90;99.90;;;;;;5012551;28;20040;-70
2022/12/12 07:11:28;;;;;;;15.85;7.72;;;-0.90;99.90;;;;;;5004176;28;20429;-71
2022/12/12 07:13:56;;;;;;;13.57;6.32;;;-0.90;99.90;;;;;;5011552;28;20110;-70
2022/12/12 07:16:22;;;;;;;16.75;10.30;;;-0.90;99.90;;;;;;5004151;28;20029;-70
2022/12/12 07:18:48;;;;;;;16.52;7.38;;;-0.90;99.90;;;;;;5011426;28;20041;-70
2022/12/12 07:21:18;;;;;;;22.10;10.82;;;-0.90;99.90;;;;;;5020425;28;20164;-69
2022/12/12 07:23:45;;;;;;;29.33;9.50;;;-0.90;99.90;;;;;;5005916;28;20030;-69
2022/12/12 07:26:14;;;;;;;14.98;7.07;;;-0.90;99.90;;;;;;5029613;28;20021;-68
2022/12/12 07:28:40;;;;;;;11.35;8.95;;;-0.90;99.90;;;;;;5005915;28;20112;-67
2022/12/12 07:31:13;;;;;;;17.10;9.38;;;-0.90;99.90;;;;;;5012259;28;20517;-67
2022/12/12 07:33:39;;;;;;;13.15;8.52;;;-0.90;99.90;;;;;;5005771;28;20018;-67
2022/12/12 07:36:05;;;;;;;14.13;8.10;;;-0.90;99.90;;;;;;5005455;28;20037;-67
2022/12/12 07:38:31;;;;;;;15.60;7.05;;;-0.90;99.90;;;;;;5022045;28;20105;-68
2022/12/12 07:41:08;;;;;;;13.23;6.63;;;-0.90;99.90;;;;;;5013582;28;20037;-67
2022/12/12 07:43:35;;;;;;;18.02;8.52;;;-0.90;99.90;;;;;;5019610;28;20084;-67
2022/12/12 07:46:04;;;;;;;13.50;7.60;;;-0.90;99.90;;;;;;5030678;28;20033;-67
2022/12/12 07:48:30;;;;;;;18.13;8.05;;;-0.90;99.90;;;;;;5003045;28;20057;-68
2022/12/12 07:50:59;;;;;;;13.23;8.45;;;-0.80;99.90;;;;;;5016790;28;20116;-66
2022/12/12 07:53:25;;;;;;;20.52;7.40;;;-0.80;99.90;;;;;;5017231;28;20030;-66
2022/12/12 07:55:51;;;;;;;19.50;8.07;;;-0.90;99.90;;;;;;5032745;28;20040;-67
2022/12/12 07:58:16;;;;;;;14.13;7.90;;;-0.90;99.90;;;;;;5020201;28;20032;-67
2022/12/12 08:00:42;;;;;;;24.92;8.93;;;-0.90;99.90;;;;;;5012613;28;20099;-67
2022/12/12 08:03:08;;;;;;;16.60;6.97;;;-0.80;99.90;;;;;;5020962;28;20489;-66
2022/12/12 08:05:33;;;;;;;13.50;7.68;;;-0.80;99.90;;;;;;5007421;28;20485;-67
2022/12/12 08:07:59;;;;;;;30.15;10.77;;;-0.80;99.90;;;;;;5019479;28;20030;-67
2022/12/12 08:10:25;;;;;;;16.55;7.10;;;-0.80;99.90;;;;;;5010515;28;20432;-66
2022/12/12 08:12:51;;;;;;;30.55;7.78;;;-0.90;99.90;;;;;;5022647;28;20034;-66
2022/12/12 08:15:17;;;;;;;15.88;8.68;;;-0.90;99.90;;;;;;5027272;28;20110;-67
2022/12/12 08:17:43;;;;;;;12.00;7.35;;;-0.90;99.90;;;;;;5023890;28;20041;-67
2022/12/12 08:20:09;;;;;;;13.13;6.38;;;-0.90;99.90;;;;;;5025894;28;20665;-66
2022/12/12 08:22:35;;;;;;;15.20;7.47;;;-0.90;99.90;;;;;;5007786;28;20124;-67
2022/12/12 08:25:01;;;;;;;14.20;8.95;;;-1.00;99.90;;;;;;5024899;28;20212;-66
2022/12/12 08:27:27;;;;;;;14.50;6.65;;;-1.00;99.90;;;;;;5008973;28;20037;-66
2022/12/12 08:29:53;;;;;;;13.10;7.10;;;-1.00;99.90;;;;;;5023528;28;20110;-67
2022/12/12 08:32:19;;;;;;;17.48;6.93;;;-1.00;99.90;;;;;;4988611;28;20025;-68
2022/12/12 08:34:46;;;;;;;14.35;9.10;;;-1.00;99.90;;;;;;5023862;28;20025;-67
2022/12/12 08:37:12;;;;;;;15.55;7.75;;;-1.10;99.90;;;;;;4984731;28;20077;-65
2022/12/12 08:39:38;;;;;;;21.08;8.15;;;-1.10;99.90;;;;;;5019460;28;20501;-67
2022/12/12 08:42:04;;;;;;;15.50;7.95;;;-1.10;99.90;;;;;;5027203;28;20482;-67
2022/12/12 08:44:30;;;;;;;15.95;6.63;;;-1.00;99.90;;;;;;5020152;28;20114;-68
2022/12/12 08:46:55;;;;;;;14.55;7.97;;;-1.00;99.90;;;;;;5028414;28;20120;-68
2022/12/12 08:49:21;;;;;;;12.35;7.35;;;-1.00;99.90;;;;;;5019649;28;20022;-68
2022/12/12 08:51:47;;;;;;;19.77;8.35;;;-1.00;99.90;;;;;;5028826;28;20531;-67
2022/12/12 08:54:13;;;;;;;18.08;6.93;;;-1.00;99.90;;;;;;5002143;28;20437;-67
2022/12/12 08:56:39;;;;;;;17.20;7.72;;;-0.90;99.90;;;;;;5029554;28;20040;-68
2022/12/12 08:59:05;;;;;;;18.00;9.27;;;-0.90;99.90;;;;;;5016723;28;20014;-68
2022/12/12 09:01:31;;;;;;;14.98;6.32;;;-0.90;99.90;;;;;;5028280;28;20043;-67
2022/12/12 09:03:57;;;;;;;17.02;9.43;;;-0.90;99.90;;;;;;5019820;28;20026;-68
2022/12/12 09:06:24;;;;;;;20.45;9.48;;;-0.90;99.90;;;;;;4998455;28;20060;-67
2022/12/12 09:08:51;;;;;;;16.17;8.13;;;-0.90;99.90;;;;;;4985049;28;20045;-67
2022/12/12 09:11:17;;;;;;;29.35;8.68;;;-0.80;99.90;;;;;;5007847;28;20057;-67
2022/12/12 09:13:43;;;;;;;11.48;7.53;;;-0.70;99.90;;;;;;5003952;28;20034;-67
2022/12/12 09:16:10;;;;;;;25.10;8.27;;;-0.80;99.90;;;;;;5025294;28;20036;-68
2022/12/12 09:18:37;;;;;;;13.38;7.45;;;-0.70;99.90;;;;;;5004999;28;20037;-67
2022/12/12 09:21:04;;;;;;;10.05;8.48;;;-0.70;99.90;;;;;;5006306;28;20065;-68
2022/12/12 09:23:29;;;;;;;20.80;9.30;;;-0.70;99.90;;;;;;5006023;28;20060;-68
2022/12/12 09:25:55;;;;;;;17.15;8.80;;;-0.70;99.90;;;;;;5022865;28;20061;-68
2022/12/12 09:28:24;;;;;;;23.98;9.25;;;-0.70;99.90;;;;;;5006096;28;20022;-67
2022/12/12 09:30:50;;;;;;;22.52;11.35;;;-0.60;99.90;;;;;;5004943;28;20041;-68
2022/12/12 09:33:18;;;;;;;23.63;10.07;;;-0.70;99.90;;;;;;5022796;28;20116;-69
2022/12/12 09:35:44;;;;;;;18.48;8.93;;;-0.60;99.90;;;;;;5016307;28;20026;-69
2022/12/12 09:38:10;;;;;;;14.95;7.82;;;-0.70;99.90;;;;;;5015108;28;20052;-69
2022/12/12 09:40:53;;;;;;;15.73;8.43;;;-0.70;99.90;;;;;;5013312;28;20075;-69
2022/12/12 09:43:24;;;;;;;20.92;8.93;;;-0.70;99.90;;;;;;4994194;28;20060;-69
2022/12/12 09:45:50;;;;;;;13.48;8.68;;;-0.70;99.90;;;;;;5005172;28;20043;-69
2022/12/12 09:48:45;;;;;;;14.38;7.90;;;-0.60;99.90;;;;;;5005720;28;20120;-69
2022/12/12 09:51:12;;;;;;;24.35;10.32;;;-0.40;99.90;;;;;;5004881;28;20121;-68
2022/12/12 09:53:40;;;;;;;18.00;9.25;;;-0.40;99.90;;;;;;5000995;28;20087;-68
2022/12/12 09:56:28;;;;;;;16.17;8.18;;;-0.50;99.90;;;;;;4995585;28;20102;-68
2022/12/12 09:59:13;;;;;;;17.45;9.27;;;-0.50;99.90;;;;;;5000044;28;20033;-68
2022/12/12 10:02:01;;;;;;;19.45;8.18;;;-0.60;99.90;;;;;;4998688;28;20026;-69
2022/12/12 10:05:05;;;;;;;15.77;8.77;;;-0.50;99.90;;;;;;4998773;28;20032;-71
2022/12/12 10:07:45;;;;;;;20.02;9.18;;;-0.40;99.90;;;;;;4996445;28;20037;-70
2022/12/12 10:10:42;;;;;;;17.67;8.32;;;-0.40;99.90;;;;;;5004837;28;20026;-69
2022/12/12 10:13:18;;;;;;;21.85;8.75;;;-0.30;99.90;;;;;;5008118;28;20036;-68
2022/12/12 10:16:06;;;;;;;15.35;7.53;;;-0.20;99.90;;;;;;5004730;28;20084;-69
2022/12/12 10:18:45;;;;;;;15.32;7.68;;;0.00;99.90;;;;;;5021655;28;20792;-69
2022/12/12 10:21:26;;;;;;;16.35;8.98;;;0.00;99.90;;;;;;5006932;28;20029;-68
2022/12/12 10:24:22;;;;;;;22.33;9.57;;;0.20;99.90;;;;;;5002432;28;20030;-68
2022/12/12 10:26:48;;;;;;;13.85;8.32;;;0.40;99.90;;;;;;5026940;28;20124;-69
2022/12/12 10:29:18;;;;;;;28.27;11.60;;;0.20;99.90;;;;;;5000602;28;20101;-69
2022/12/12 10:34:59;;;;;;;17.55;9.60;;;0.10;99.90;;;;;;4990160;28;20045;-69
2022/12/12 10:37:31;;;;;;;20.00;7.00;;;0.20;99.90;;;;;;4971241;28;20219;-69
2022/12/12 10:40:24;;;;;;;17.80;7.55;;;0.60;99.90;;;;;;4992322;28;20030;-69
2022/12/12 10:43:21;;;;;;;22.05;10.07;;;0.70;99.90;;;;;;4995738;28;20038;-70
2022/12/12 10:45:53;;;;;;;14.25;7.30;;;0.70;99.90;;;;;;4989305;28;20085;-68
2022/12/12 10:48:18;;;;;;;14.27;7.75;;;0.70;99.90;;;;;;4984191;28;20481;-68
2022/12/12 10:50:52;;;;;;;19.27;8.43;;;0.70;99.90;;;;;;4990104;28;20121;-68
2022/12/12 10:53:19;;;;;;;25.27;9.05;;;0.80;99.90;;;;;;4968423;28;20034;-68
2022/12/12 10:56:07;;;;;;;17.75;9.38;;;0.80;99.90;;;;;;4973263;28;20113;-68
2022/12/12 10:58:40;;;;;;;16.90;7.10;;;1.50;99.90;;;;;;4969237;28;20540;-70
2022/12/12 11:01:26;;;;;;;24.48;9.68;;;2.60;99.90;;;;;;4973175;28;20034;-72
2022/12/12 11:03:54;;;;;;;16.23;8.90;;;2.70;99.90;;;;;;4968814;28;20033;-65
2022/12/12 11:06:37;;;;;;;15.25;7.82;;;2.60;99.90;;;;;;4954580;28;20312;-69
2022/12/12 11:09:08;;;;;;;28.00;8.63;;;2.80;99.90;;;;;;4954195;28;20506;-69
2022/12/12 11:11:34;;;;;;;16.13;7.60;;;3.00;99.90;;;;;;4973137;28;20390;-70
2022/12/12 11:14:03;;;;;;;25.15;7.60;;;2.90;99.90;;;;;;4973027;28;20030;-69
2022/12/12 11:16:41;;;;;;;27.63;10.15;;;3.20;99.90;;;;;;4965367;28;20157;-69
2022/12/12 11:19:22;;;;;;;19.50;8.05;;;3.90;99.90;;;;;;4961266;28;20034;-68
2022/12/12 11:21:48;;;;;;;20.15;8.85;;;3.60;99.90;;;;;;4960718;28;20050;-68
2022/12/12 11:24:35;;;;;;;20.38;8.43;;;3.10;99.90;;;;;;4990658;28;20045;-69
2022/12/12 11:27:06;;;;;;;20.17;8.57;;;2.40;99.90;;;;;;4965428;28;20043;-68
2022/12/12 11:29:52;;;;;;;14.77;6.47;;;2.00;99.90;;;;;;4960742;28;20448;-68
2022/12/12 11:32:27;;;;;;;20.45;8.65;;;1.80;99.90;;;;;;4970316;28;20034;-67
2022/12/12 11:34:58;;;;;;;19.05;7.63;;;2.40;99.90;;;;;;4960979;28;20031;-67
2022/12/12 11:37:27;;;;;;;;;;;2.40;99.90;;;;;;4957595;28;20035;-68
2022/12/12 11:39:56;;;;;;;16.13;7.43;;;2.10;99.90;;;;;;4975970;28;19914;-67
2022/12/12 11:42:31;;;;;;;17.02;7.55;;;2.00;99.90;;;;;;4969521;28;20073;-66
2022/12/12 11:45:07;;;;;;;16.25;7.28;;;2.40;99.90;;;;;;4961876;28;20037;-68
2022/12/12 11:47:42;;;;;;;17.45;7.18;;;4.40;99.90;;;;;;4985321;28;20085;-68
2022/12/12 11:50:23;;;;;;;18.17;7.07;;;4.60;99.90;;;;;;4976075;28;20429;-67
2022/12/12 11:52:55;;;;;;;16.83;6.63;;;3.50;99.90;;;;;;4984873;28;20038;-68
2022/12/12 11:55:46;;;;;;;19.23;7.85;;;3.10;99.90;;;;;;4958190;28;20027;-68
2022/12/12 11:58:37;;;;;;;;;;;2.80;99.90;;;;;;4968050;28;20034;-68
2022/12/12 12:01:38;;;;;;;21.90;8.38;;;3.30;99.90;;;;;;4971056;28;19937;-68
2022/12/12 12:04:12;;;;;;;16.23;7.60;;;3.00;99.90;;;;;;4972771;28;20083;-67
2022/12/12 12:07:02;;;;;;;15.50;6.57;;;2.60;99.90;;;;;;4986673;28;20038;-68
2022/12/12 12:09:45;;;;;;;14.95;8.07;;;2.40;99.90;;;;;;4976946;28;20478;-67
2022/12/12 12:12:37;;;;;;;15.07;6.40;;;2.10;99.90;;;;;;4986671;28;20088;-67
2022/12/12 12:15:26;;;;;;;15.55;8.35;;;1.80;99.90;;;;;;4938554;28;20023;-67
2022/12/12 12:18:36;;;;;;;18.02;8.80;;;2.10;99.90;;;;;;4982268;28;20564;-68
2022/12/12 12:21:26;;;;;;;9.40;6.10;;;2.30;99.90;;;;;;4986804;28;20065;-67
2022/12/12 12:24:10;;;;;;;9.05;5.25;;;2.20;99.90;;;;;;4992769;28;20040;-67
2022/12/12 12:27:24;;;;;;;19.20;6.70;;;2.20;99.90;;;;;;4986389;28;20504;-67
2022/12/12 12:30:18;;;;;;;13.35;6.75;;;2.20;99.90;;;;;;4976843;28;20038;-67
2022/12/12 12:33:06;;;;;;;15.25;6.88;;;2.50;99.90;;;;;;4990064;28;20058;-66
2022/12/12 12:35:55;;;;;;;12.27;7.35;;;3.00;99.90;;;;;;4976578;28;20043;-66
2022/12/12 12:38:48;;;;;;;15.07;7.70;;;2.60;99.90;;;;;;4992772;28;20031;-66
2022/12/12 12:41:17;;;;;;;9.35;5.60;;;2.20;99.90;;;;;;4986059;28;20059;-66
2022/12/12 12:44:30;;;;;;;28.27;7.85;;;2.10;99.90;;;;;;4973563;28;20105;-67
2022/12/12 12:47:35;;;;;;;18.17;7.20;;;2.10;99.90;;;;;;4976133;28;20118;-67
2022/12/12 12:50:34;;;;;;;14.48;7.38;;;2.50;99.90;;;;;;4943670;28;20034;-66
2022/12/12 12:53:41;;;;;;;10.73;5.10;;;2.50;99.90;;;;;;4956266;28;20034;-66
2022/12/12 12:56:30;;;;;;;10.07;5.68;;;2.50;99.90;;;;;;4954902;28;20062;-66
2022/12/12 12:59:02;;;;;;;18.60;7.97;;;2.10;99.90;;;;;;4963726;28;20105;-66
2022/12/12 13:01:45;;;;;;;23.33;6.03;;;2.10;99.90;;;;;;4974435;28;20593;-66
2022/12/12 13:04:19;;;;;;;12.20;5.07;;;1.90;99.90;;;;;;4965897;28;20074;-67
2022/12/12 13:07:23;;;;;;;15.32;5.78;;;2.00;99.90;;;;;;4971257;28;20030;-66
2022/12/12 13:10:20;;;;;;;10.30;4.68;;;2.40;99.90;;;;;;4966580;28;20065;-66
2022/12/12 13:13:29;;;;;;;13.93;6.63;;;2.50;99.90;;;;;;4972184;28;20046;-66
2022/12/12 13:16:26;;;;;;;16.25;6.50;;;2.60;99.90;;;;;;4973012;28;20037;-67
2022/12/12 13:19:15;;;;;;;12.60;5.90;;;3.10;99.90;;;;;;4981992;28;20475;-68
2022/12/12 13:22:28;;;;;;;16.10;6.20;;;4.20;99.90;;;;;;4976180;28;20084;-67
2022/12/12 13:25:32;;;;;;;13.68;6.28;;;4.90;99.90;;;;;;4913822;29;20067;-67
2022/12/12 13:28:02;;;;;;;14.90;6.55;;;4.90;99.90;;;;;;4971428;28;20035;-67
2022/12/12 13:31:10;;;;;;;11.50;5.45;;;5.10;99.90;;;;;;4970883;28;20081;-67
2022/12/12 13:33:49;;;;;;;16.20;6.15;;;5.00;99.90;;;;;;4952162;28;20451;-67
2022/12/12 13:36:25;;;;;;;26.17;7.05;;;4.60;99.90;;;;;;4987743;28;20118;-67